createdAt,value
2022-12-31T00:00:06.071Z,11.31
2022-12-31T00:05:08.322Z,11.32
2022-12-31T00:10:10.036Z,11.35
2022-12-31T00:15:11.512Z,11.37
2022-12-31T00:20:13.059Z,11.27
2022-12-31T00:25:14.818Z,11.27
2022-12-31T00:30:16.332Z,11.16
2022-12-31T00:35:17.939Z,11.14
2022-12-31T00:40:19.361Z,11.14
2022-12-31T00:45:21.012Z,11.08
2022-12-31T00:50:22.413Z,10.96
2022-12-31T00:55:23.821Z,10.90
2022-12-31T01:00:25.446Z,10.84
2022-12-31T01:05:27.012Z,10.80
2022-12-31T01:10:47.303Z,10.68
2022-12-31T01:15:48.800Z,10.69
2022-12-31T01:20:50.240Z,10.71
2022-12-31T01:25:51.619Z,10.67
2022-12-31T01:30:53.494Z,10.66
2022-12-31T01:35:54.943Z,10.67
2022-12-31T01:40:56.404Z,10.63
2022-12-31T01:45:57.961Z,10.67
2022-12-31T01:50:59.719Z,10.65
2022-12-31T01:56:03.188Z,10.64
2022-12-31T02:01:05.376Z,10.64
2022-12-31T02:06:10.994Z,10.63
2022-12-31T02:11:31.469Z,10.65
2022-12-31T02:16:57.785Z,10.62
2022-12-31T02:22:30.337Z,10.55
2022-12-31T02:28:08.984Z,10.51
2022-12-31T02:33:20.103Z,10.46
2022-12-31T02:38:32.569Z,10.42
2022-12-31T02:43:34.004Z,10.41
2022-12-31T02:48:52.415Z,10.32
2022-12-31T02:54:11.811Z,10.35
2022-12-31T03:00:04.678Z,10.28
2022-12-31T03:05:08.253Z,10.24
2022-12-31T03:10:10.067Z,10.15
2022-12-31T03:15:20.317Z,10.11
2022-12-31T03:20:44.636Z,10.11
2022-12-31T03:25:46.540Z,10.05
2022-12-31T03:30:50.642Z,10.02
2022-12-31T03:35:53.047Z,10.04
2022-12-31T03:40:54.424Z,10.03
2022-12-31T03:45:58.170Z,10.03
2022-12-31T03:50:59.659Z,10.06
2022-12-31T03:56:01.085Z,10.01
2022-12-31T04:01:02.636Z,10.04
2022-12-31T04:06:04.170Z,10.01
2022-12-31T04:11:05.792Z,10.08
2022-12-31T04:16:07.222Z,10.09
2022-12-31T04:21:08.850Z,10.10
2022-12-31T04:26:10.272Z,10.13
2022-12-31T04:31:11.754Z,10.14
2022-12-31T04:36:13.230Z,10.07
2022-12-31T04:41:17.597Z,10.14
2022-12-31T04:46:21.783Z,10.15
2022-12-31T04:51:24.076Z,10.14
2022-12-31T04:56:27.115Z,10.14
2022-12-31T05:01:28.679Z,10.15
2022-12-31T05:06:30.129Z,10.20
2022-12-31T05:11:31.537Z,10.26
2022-12-31T05:16:32.942Z,10.31
2022-12-31T05:21:34.353Z,10.29
2022-12-31T05:26:35.756Z,10.32
2022-12-31T05:31:37.166Z,10.41
2022-12-31T05:36:38.593Z,10.45
2022-12-31T05:41:40.042Z,10.49
2022-12-31T05:46:41.438Z,10.46
2022-12-31T05:51:42.919Z,10.45
2022-12-31T05:56:44.513Z,10.48
2022-12-31T06:01:46.107Z,10.46
2022-12-31T06:06:47.658Z,10.46
2022-12-31T06:11:50.082Z,10.49
2022-12-31T06:16:52.243Z,10.46
2022-12-31T06:21:53.659Z,10.50
2022-12-31T06:26:55.089Z,10.49
2022-12-31T06:31:56.540Z,10.52
2022-12-31T06:36:59.126Z,10.55
2022-12-31T06:42:00.665Z,10.67
2022-12-31T06:47:02.156Z,10.76
2022-12-31T06:52:03.699Z,10.85
2022-12-31T06:57:05.467Z,11.13
2022-12-31T07:02:20.074Z,11.24
2022-12-31T07:07:38.810Z,11.39
2022-12-31T07:13:07.831Z,11.57
2022-12-31T07:18:20.457Z,11.92
2022-12-31T07:23:22.288Z,11.93
2022-12-31T07:28:37.181Z,11.90
2022-12-31T07:33:48.643Z,11.88
2022-12-31T07:39:14.797Z,11.82
2022-12-31T07:44:46.982Z,11.84
2022-12-31T07:49:49.007Z,11.94
2022-12-31T07:54:50.585Z,11.93
2022-12-31T08:00:27.575Z,12.06
2022-12-31T08:05:37.850Z,12.16
2022-12-31T08:11:07.300Z,12.04
2022-12-31T08:16:12.304Z,11.85
2022-12-31T08:21:35.727Z,11.76
2022-12-31T08:26:53.359Z,11.68
2022-12-31T08:32:30.443Z,11.70
2022-12-31T08:37:40.008Z,11.71
2022-12-31T08:43:10.569Z,11.67
2022-12-31T08:48:40.801Z,11.73
2022-12-31T08:53:42.482Z,11.76
2022-12-31T08:59:12.817Z,11.74
2022-12-31T09:04:32.055Z,11.77
2022-12-31T09:09:52.831Z,11.75
2022-12-31T09:15:21.142Z,11.80
2022-12-31T09:20:43.284Z,11.88
2022-12-31T09:26:07.025Z,11.93
2022-12-31T09:31:17.220Z,11.94
2022-12-31T09:36:46.362Z,12.08
2022-12-31T09:42:23.727Z,12.06
2022-12-31T09:47:49.271Z,12.16
2022-12-31T09:53:17.033Z,12.15
2022-12-31T09:58:49.161Z,12.26
2022-12-31T10:04:12.062Z,12.38
2022-12-31T10:10:01.549Z,12.89
2022-12-31T10:15:05.776Z,12.94
2022-12-31T10:20:07.283Z,13.08
2022-12-31T10:25:15.127Z,13.15
2022-12-31T10:30:20.119Z,13.23
2022-12-31T10:35:54.611Z,13.11
2022-12-31T10:41:37.929Z,13.23
2022-12-31T10:47:06.809Z,13.33
2022-12-31T10:52:46.286Z,13.27
2022-12-31T10:58:21.917Z,13.32
2022-12-31T11:03:51.357Z,13.34
2022-12-31T11:09:19.525Z,13.35
2022-12-31T11:14:33.945Z,13.29
2022-12-31T11:19:38.515Z,13.26
2022-12-31T11:24:56.830Z,13.44
2022-12-31T11:30:17.038Z,13.56
2022-12-31T11:35:44.796Z,13.56
2022-12-31T11:40:54.438Z,13.71
2022-12-31T11:46:21.878Z,13.82
2022-12-31T11:51:54.558Z,13.96
2022-12-31T11:57:18.008Z,13.86
2022-12-31T12:02:32.824Z,13.70
2022-12-31T12:07:35.482Z,13.63
2022-12-31T12:12:43.511Z,13.87
2022-12-31T12:17:50.582Z,13.84
2022-12-31T12:22:56.209Z,13.85
2022-12-31T12:27:57.695Z,13.69
2022-12-31T12:33:01.901Z,13.65
2022-12-31T12:38:07.917Z,13.51
2022-12-31T12:43:26.530Z,13.61
2022-12-31T12:48:44.116Z,13.58
2022-12-31T12:54:07.692Z,13.59
2022-12-31T12:59:29.495Z,13.65
2022-12-31T13:04:55.307Z,13.71
2022-12-31T13:10:12.275Z,13.74
2022-12-31T13:15:39.905Z,13.59
2022-12-31T13:21:03.456Z,13.63
2022-12-31T13:26:14.537Z,13.53
2022-12-31T13:31:24.780Z,13.68
2022-12-31T13:36:30.355Z,13.50
2022-12-31T13:41:41.926Z,13.49
2022-12-31T13:46:57.659Z,13.48
2022-12-31T13:52:14.870Z,13.37
2022-12-31T13:57:31.264Z,13.39
2022-12-31T14:02:44.326Z,13.50
2022-12-31T14:07:52.384Z,13.38
2022-12-31T14:12:56.813Z,13.43
2022-12-31T14:18:01.388Z,13.52
2022-12-31T14:23:27.937Z,13.59
2022-12-31T14:28:53.720Z,13.62
2022-12-31T14:34:19.247Z,13.57
2022-12-31T14:39:42.319Z,13.63
2022-12-31T14:45:13.139Z,13.57
2022-12-31T14:50:25.933Z,13.52
2022-12-31T14:55:30.894Z,13.48
2022-12-31T15:00:40.997Z,13.54
2022-12-31T15:05:52.942Z,13.53
2022-12-31T15:11:16.161Z,13.64
2022-12-31T15:16:34.449Z,13.62
2022-12-31T15:21:40.741Z,13.64
2022-12-31T15:26:49.094Z,13.64
2022-12-31T15:31:51.687Z,13.70
2022-12-31T15:36:55.952Z,13.69
2022-12-31T15:47:37.637Z,13.91
2022-12-31T15:52:44.071Z,13.85
2022-12-31T15:57:48.420Z,13.79
2022-12-31T16:02:55.242Z,13.73
2022-12-31T16:07:59.595Z,13.93
2022-12-31T16:13:01.162Z,14.00
2022-12-31T16:18:22.406Z,13.73
2022-12-31T16:23:27.426Z,13.99
2022-12-31T16:28:32.202Z,13.95
2022-12-31T16:33:34.288Z,13.93
2022-12-31T16:38:37.731Z,13.86
2022-12-31T16:43:41.036Z,13.85
2022-12-31T16:48:47.454Z,14.05
2022-12-31T16:53:50.960Z,13.77
2022-12-31T16:59:00.180Z,13.68
2022-12-31T17:04:06.670Z,13.96
2022-12-31T17:09:30.882Z,13.57
2022-12-31T17:14:47.779Z,13.81
2022-12-31T17:19:51.683Z,13.66
2022-12-31T17:24:59.947Z,13.69
2022-12-31T17:30:35.414Z,13.70
2022-12-31T17:35:42.056Z,13.46
2022-12-31T17:40:53.018Z,13.68
2022-12-31T17:45:54.814Z,13.60
2022-12-31T17:51:01.233Z,13.55
2022-12-31T17:56:04.533Z,13.67
2022-12-31T18:01:07.440Z,13.55
2022-12-31T18:06:16.290Z,13.68
2022-12-31T18:11:21.368Z,13.49
2022-12-31T18:16:22.880Z,13.61
2022-12-31T18:21:32.421Z,13.74
2022-12-31T18:26:35.335Z,14.05
2022-12-31T18:31:39.812Z,13.93
2022-12-31T18:36:41.713Z,13.76
2022-12-31T18:41:46.407Z,13.80
2022-12-31T18:46:50.795Z,13.65
2022-12-31T18:51:54.187Z,13.96
2022-12-31T18:56:57.349Z,13.78
2022-12-31T19:01:59.157Z,13.73
2022-12-31T19:07:00.765Z,13.69
2022-12-31T19:12:02.224Z,13.85
2022-12-31T19:22:05.447Z,13.76
2022-12-31T19:27:06.968Z,13.70
2022-12-31T19:32:09.773Z,13.57
2022-12-31T19:37:15.582Z,13.82
2022-12-31T19:42:17.143Z,13.66
2022-12-31T19:47:18.963Z,13.71
2022-12-31T19:52:20.439Z,13.81
2022-12-31T19:57:21.893Z,13.59
2022-12-31T20:02:23.484Z,13.75
2022-12-31T20:07:27.276Z,13.37
2022-12-31T20:12:29.664Z,13.49
2022-12-31T20:17:31.438Z,13.50
2022-12-31T20:22:33.040Z,13.49
2022-12-31T20:27:36.219Z,13.66
2022-12-31T20:32:37.674Z,13.51
2022-12-31T20:37:39.404Z,13.45
2022-12-31T20:42:41.359Z,13.37
2022-12-31T20:47:42.818Z,13.24
2022-12-31T20:52:44.507Z,13.52
2022-12-31T20:57:46.255Z,13.67
2022-12-31T21:02:55.524Z,13.78
2022-12-31T21:07:59.285Z,13.59
2022-12-31T21:13:01.825Z,13.81
2022-12-31T21:18:03.308Z,13.78
2022-12-31T21:23:05.028Z,13.69
2022-12-31T21:28:06.488Z,13.70
2022-12-31T21:33:09.570Z,13.70
2022-12-31T21:38:12.526Z,13.84
2022-12-31T21:43:17.010Z,13.80
2022-12-31T21:48:24.146Z,13.76
2022-12-31T21:53:34.228Z,14.08
2022-12-31T21:58:40.782Z,13.95
2022-12-31T22:03:43.349Z,13.90
2022-12-31T22:08:45.904Z,14.08
2022-12-31T22:13:49.192Z,13.95
2022-12-31T22:18:50.698Z,14.18
2022-12-31T22:23:54.985Z,13.97
2022-12-31T22:28:59.289Z,13.97
2022-12-31T22:34:02.021Z,14.11
2022-12-31T22:39:03.571Z,14.22
2022-12-31T22:44:05.212Z,14.20
2022-12-31T22:49:06.713Z,14.00
2022-12-31T22:54:10.461Z,13.98
2022-12-31T22:59:11.947Z,14.06
2022-12-31T23:04:16.026Z,14.08
2022-12-31T23:09:37.153Z,13.98
2022-12-31T23:14:57.164Z,14.11
2022-12-31T23:20:19.951Z,14.02
2022-12-31T23:25:21.570Z,14.48
2022-12-31T23:30:23.099Z,14.18
2022-12-31T23:35:25.097Z,14.28
2022-12-31T23:40:34.393Z,14.22
2022-12-31T23:45:36.429Z,14.32
2022-12-31T23:50:40.538Z,14.18
2022-12-31T23:55:43.160Z,14.11
